createdAt,value
2022-12-12T00:04:07.053Z,100416.63
2022-12-12T00:09:09.534Z,100420.78
2022-12-12T00:14:11.388Z,100419.44
2022-12-12T00:19:14.539Z,100427.28
2022-12-12T00:24:16.369Z,100424.59
2022-12-12T00:29:18.261Z,100423.28
2022-12-12T00:34:21.472Z,100421.41
2022-12-12T00:39:23.821Z,100420.75
2022-12-12T00:44:25.686Z,100422.13
2022-12-12T00:49:28.896Z,100420.22
2022-12-12T00:54:30.901Z,100415.50
2022-12-12T00:59:32.758Z,100415.47
2022-12-12T01:04:35.983Z,100416.63
2022-12-12T01:09:37.914Z,100419.97
2022-12-12T01:14:39.771Z,100416.53
2022-12-12T01:19:43.071Z,100425.06
2022-12-12T01:24:44.902Z,100415.22
2022-12-12T01:29:46.654Z,100425.31
2022-12-12T01:34:49.983Z,100439.53
2022-12-12T01:39:52.044Z,100436.44
2022-12-12T01:44:54.061Z,100448.72
2022-12-12T01:49:58.681Z,100437.50
2022-12-12T01:55:01.158Z,100441.38
2022-12-12T02:00:05.024Z,100434.41
2022-12-12T02:05:14.833Z,100430.84
2022-12-12T02:10:16.672Z,100438.69
2022-12-12T02:15:18.460Z,100430.91
2022-12-12T02:20:35.970Z,100433.06
2022-12-12T02:25:57.507Z,100435.34
2022-12-12T02:31:13.406Z,100431.66
2022-12-12T02:36:18.228Z,100429.84
2022-12-12T02:41:26.344Z,100441.03
2022-12-12T02:46:31.967Z,100448.06
2022-12-12T02:51:33.828Z,100444.72
2022-12-12T02:56:51.055Z,100433.19
2022-12-12T03:02:06.776Z,100434.16
2022-12-12T03:07:29.701Z,100440.19
2022-12-12T03:12:35.061Z,100452.09
2022-12-12T03:17:41.466Z,100462.56
2022-12-12T03:22:44.860Z,100452.47
2022-12-12T03:27:49.412Z,100461.78
2022-12-12T03:32:54.154Z,100465.78
2022-12-12T03:37:59.020Z,100472.63
2022-12-12T03:43:02.708Z,100471.41
2022-12-12T03:48:08.346Z,100473.72
2022-12-12T03:53:11.598Z,100466.50
2022-12-12T03:58:14.613Z,100463.19
2022-12-12T04:03:21.448Z,100456.63
2022-12-12T04:08:23.316Z,100461.78
2022-12-12T04:13:32.076Z,100465.34
2022-12-12T04:18:37.764Z,100470.31
2022-12-12T04:23:43.324Z,100472.94
2022-12-12T04:28:49.743Z,100473.34
2022-12-12T04:33:53.965Z,100487.22
2022-12-12T04:38:55.927Z,100486.25
2022-12-12T04:43:57.690Z,100478.84
2022-12-12T04:49:03.254Z,100487.03
2022-12-12T04:54:07.778Z,100482.66
2022-12-12T04:59:09.589Z,100484.47
2022-12-12T05:04:16.496Z,100483.59
2022-12-12T05:09:18.451Z,100477.06
2022-12-12T05:14:20.362Z,100478.50
2022-12-12T05:19:23.618Z,100481.22
2022-12-12T05:24:31.311Z,100485.53
2022-12-12T05:29:35.195Z,100484.03
2022-12-12T05:34:38.443Z,100490.16
2022-12-12T05:39:45.309Z,100489.28
2022-12-12T05:44:48.035Z,100496.00
2022-12-12T05:49:51.309Z,100493.56
2022-12-12T05:54:53.373Z,100501.34
2022-12-12T05:59:56.038Z,100508.44
2022-12-12T06:04:59.497Z,100514.72
2022-12-12T06:10:01.395Z,100524.91
2022-12-12T06:15:03.418Z,100522.44
2022-12-12T06:20:07.759Z,100518.88
2022-12-12T06:25:09.602Z,100525.91
2022-12-12T06:30:12.052Z,100529.16
2022-12-12T06:35:16.314Z,100540.44
2022-12-12T06:40:18.220Z,100548.13
2022-12-12T06:45:19.987Z,100552.47
2022-12-12T06:50:24.033Z,100550.66
2022-12-12T06:55:25.911Z,100564.34
2022-12-12T07:00:27.660Z,100566.00
2022-12-12T07:05:30.865Z,100568.13
2022-12-12T07:10:35.274Z,100559.88
2022-12-12T07:15:42.160Z,100559.53
2022-12-12T07:20:46.135Z,100559.97
2022-12-12T07:25:47.906Z,100568.50
2022-12-12T07:30:49.802Z,100568.47
2022-12-12T07:35:57.648Z,100572.81
2022-12-12T07:41:02.959Z,100583.97
2022-12-12T07:46:06.074Z,100588.94
2022-12-12T07:51:09.432Z,100592.34
2022-12-12T07:56:12.182Z,100597.03
2022-12-12T08:01:15.565Z,100599.44
2022-12-12T08:06:18.745Z,100597.16
2022-12-12T08:11:21.509Z,100599.94
2022-12-12T08:16:24.998Z,100604.03
2022-12-12T08:21:28.247Z,100604.31
2022-12-12T08:26:30.488Z,100608.28
2022-12-12T08:31:32.533Z,100604.50
2022-12-12T08:36:36.148Z,100610.69
2022-12-12T08:41:39.517Z,100608.13
2022-12-12T08:46:41.625Z,100619.31
2022-12-12T08:51:45.000Z,100617.81
2022-12-12T08:56:46.770Z,100621.03
2022-12-12T09:01:48.627Z,100620.97
2022-12-12T09:06:54.981Z,100618.22
2022-12-12T09:11:56.829Z,100615.69
2022-12-12T09:16:58.798Z,100622.56
2022-12-12T09:22:02.699Z,100621.09
2022-12-12T09:27:04.493Z,100620.94
2022-12-12T09:32:06.685Z,100614.00
2022-12-12T09:37:09.969Z,100613.78
2022-12-12T09:42:12.344Z,100618.38
2022-12-12T09:47:16.939Z,100624.31
2022-12-12T09:52:27.717Z,100624.25
2022-12-12T09:57:34.622Z,100619.97
2022-12-12T10:02:42.374Z,100621.88
2022-12-12T10:07:47.588Z,100621.22
2022-12-12T10:12:49.567Z,100617.19
2022-12-12T10:17:51.334Z,100613.78
2022-12-12T10:22:57.430Z,100618.50
2022-12-12T10:28:04.738Z,100621.34
2022-12-12T10:33:13.846Z,100627.41
2022-12-12T10:38:31.355Z,100628.13
2022-12-12T10:43:35.368Z,100627.28
2022-12-12T10:48:37.501Z,100627.19
2022-12-12T10:53:40.843Z,100622.75
2022-12-12T10:58:43.591Z,100620.16
2022-12-12T11:03:46.712Z,100610.63
2022-12-12T11:08:57.206Z,100603.72
2022-12-12T11:14:00.331Z,100599.53
2022-12-12T11:19:07.392Z,100604.66
2022-12-12T11:24:13.452Z,100606.84
2022-12-12T11:29:34.835Z,100612.06
2022-12-12T11:34:36.552Z,100614.91
2022-12-12T11:39:41.622Z,100606.50
2022-12-12T11:44:43.884Z,100609.34
2022-12-12T11:49:46.122Z,100600.22
2022-12-12T11:54:49.357Z,100605.28
2022-12-12T12:00:09.493Z,100604.22
2022-12-12T12:05:17.903Z,100604.88
2022-12-12T12:10:24.699Z,100602.34
2022-12-12T12:15:33.658Z,100607.94
2022-12-12T12:20:43.156Z,100603.88
2022-12-12T12:25:49.591Z,100607.47
2022-12-12T12:30:54.287Z,100604.88
2022-12-12T12:36:00.476Z,100605.91
2022-12-12T12:41:24.544Z,100604.88
2022-12-12T12:46:32.244Z,100607.38
2022-12-12T12:51:35.188Z,100600.63
2022-12-12T12:56:43.739Z,100600.06
2022-12-12T13:01:47.181Z,100597.31
2022-12-12T13:06:50.659Z,100599.31
2022-12-12T13:11:55.829Z,100600.53
2022-12-12T13:17:03.988Z,100606.66
2022-12-12T13:22:07.869Z,100598.59
2022-12-12T13:27:13.084Z,100605.94
2022-12-12T13:32:49.216Z,100608.38
2022-12-12T13:37:51.953Z,100601.22
2022-12-12T13:42:59.884Z,100602.13
2022-12-12T13:48:05.932Z,100600.97
2022-12-12T13:53:25.743Z,100603.56
2022-12-12T13:58:35.104Z,100600.81
2022-12-12T14:03:36.788Z,100604.28
2022-12-12T14:08:39.341Z,100601.69
2022-12-12T14:13:45.163Z,100601.06
2022-12-12T14:18:58.233Z,100604.16
2022-12-12T14:23:59.971Z,100606.38
2022-12-12T14:29:27.327Z,100612.53
2022-12-12T14:34:29.469Z,100613.16
2022-12-12T14:39:59.578Z,100615.97
2022-12-12T14:45:02.687Z,100609.84
2022-12-12T14:50:08.318Z,100611.38
2022-12-12T14:55:14.038Z,100619.41
2022-12-12T15:00:19.194Z,100620.97
2022-12-12T15:05:20.956Z,100622.66
2022-12-12T15:10:23.380Z,100629.03
2022-12-12T15:15:27.689Z,100634.00
2022-12-12T15:20:30.242Z,100635.66
2022-12-12T15:25:33.461Z,100635.47
2022-12-12T15:30:37.969Z,100630.84
2022-12-12T15:35:40.936Z,100633.28
2022-12-12T15:40:43.594Z,100627.38
2022-12-12T15:45:51.260Z,100628.75
2022-12-12T15:50:57.046Z,100625.13
2022-12-12T15:56:00.435Z,100626.66
2022-12-12T16:01:08.367Z,100633.38
2022-12-12T16:06:23.179Z,100626.63
2022-12-12T16:11:39.698Z,100632.84
2022-12-12T16:16:45.124Z,100637.38
2022-12-12T16:21:46.978Z,100628.91
2022-12-12T16:26:48.793Z,100635.69
2022-12-12T16:31:51.939Z,100648.69
2022-12-12T16:36:54.063Z,100652.81
2022-12-12T16:41:55.851Z,100648.34
2022-12-12T16:46:58.941Z,100643.16
2022-12-12T16:52:00.973Z,100638.00
2022-12-12T16:57:02.836Z,100647.84
2022-12-12T17:02:09.433Z,100643.47
2022-12-12T17:07:11.239Z,100653.47
2022-12-12T17:12:13.417Z,100650.34
2022-12-12T17:17:16.602Z,100658.44
2022-12-12T17:22:18.452Z,100658.91
2022-12-12T17:27:20.369Z,100649.16
2022-12-12T17:32:24.621Z,100647.84
2022-12-12T17:37:26.513Z,100644.69
2022-12-12T17:42:29.729Z,100648.03
2022-12-12T17:47:32.874Z,100655.53
2022-12-12T17:52:34.996Z,100657.78
2022-12-12T17:57:37.034Z,100657.13
2022-12-12T18:02:40.348Z,100652.88
2022-12-12T18:07:42.248Z,100659.28
2022-12-12T18:12:49.846Z,100663.31
2022-12-12T18:17:54.705Z,100656.88
2022-12-12T18:22:56.566Z,100657.13
2022-12-12T18:27:58.724Z,100654.41
2022-12-12T18:33:03.246Z,100653.81
2022-12-12T18:38:05.221Z,100653.66
2022-12-12T18:43:07.366Z,100650.22
2022-12-12T18:48:10.521Z,100654.06
2022-12-12T18:53:12.435Z,100649.94
2022-12-12T18:58:14.268Z,100651.31
2022-12-12T19:03:17.468Z,100640.59
2022-12-12T19:08:20.221Z,100636.88
2022-12-12T19:13:22.077Z,100647.78
2022-12-12T19:18:25.147Z,100650.81
2022-12-12T19:23:26.882Z,100654.13
2022-12-12T19:28:28.650Z,100658.09
2022-12-12T19:33:32.140Z,100660.84
2022-12-12T19:38:33.951Z,100663.50
2022-12-12T19:43:35.738Z,100666.16
2022-12-12T19:48:38.919Z,100664.06
2022-12-12T19:53:41.749Z,100669.91
2022-12-12T19:58:43.649Z,100666.84
2022-12-12T20:03:49.758Z,100663.03
2022-12-12T20:08:51.710Z,100664.78
2022-12-12T20:13:54.338Z,100665.75
2022-12-12T20:18:59.191Z,100667.03
2022-12-12T20:24:00.917Z,100665.44
2022-12-12T20:29:03.154Z,100674.81
2022-12-12T20:34:06.281Z,100677.41
2022-12-12T20:39:08.664Z,100681.59
2022-12-12T20:44:11.001Z,100688.84
2022-12-12T20:49:15.771Z,100685.78
2022-12-12T20:54:19.956Z,100682.00
2022-12-12T20:59:21.769Z,100667.09
2022-12-12T21:04:25.000Z,100665.28
2022-12-12T21:09:27.105Z,100665.44
2022-12-12T21:14:30.849Z,100663.47
2022-12-12T21:19:34.621Z,100664.34
2022-12-12T21:24:36.418Z,100669.41
2022-12-12T21:29:38.230Z,100668.16
2022-12-12T21:34:41.547Z,100657.34
2022-12-12T21:39:45.422Z,100657.25
2022-12-12T21:44:47.236Z,100650.06
2022-12-12T21:49:50.336Z,100658.94
2022-12-12T21:54:52.123Z,100659.59
2022-12-12T21:59:53.957Z,100656.34
2022-12-12T22:04:58.239Z,100663.63
2022-12-12T22:10:10.823Z,100671.09
2022-12-12T22:15:13.754Z,100675.63
2022-12-12T22:20:17.173Z,100682.78
2022-12-12T22:25:19.105Z,100675.16
2022-12-12T22:30:21.433Z,100678.88
2022-12-12T22:35:26.646Z,100676.84
2022-12-12T22:40:28.624Z,100678.59
2022-12-12T22:45:34.318Z,100681.59
2022-12-12T22:50:37.665Z,100670.13
2022-12-12T22:55:39.626Z,100668.38
2022-12-12T23:00:41.645Z,100677.16
2022-12-12T23:05:45.744Z,100673.78
2022-12-12T23:10:47.545Z,100674.56
2022-12-12T23:15:49.826Z,100663.59
2022-12-12T23:20:52.976Z,100657.09
2022-12-12T23:25:54.901Z,100658.19
2022-12-12T23:30:56.854Z,100659.03
2022-12-12T23:36:00.036Z,100661.19
2022-12-12T23:41:02.983Z,100653.69
2022-12-12T23:46:06.035Z,100650.03
2022-12-12T23:51:09.178Z,100646.81
2022-12-12T23:56:11.058Z,100657.06
